sensor_id;sensor_type;location;lat;lon;timestamp;pressure;altitude;pressure_sealevel;temperature;humidity
46087;BME280;31824;49.648;8.640;2023-03-22T00:02:54;100122.13;;;11.12;100.00
46087;BME280;31824;49.648;8.640;2023-03-22T00:05:58;100113.94;;;10.99;100.00
46087;BME280;31824;49.648;8.640;2023-03-22T00:08:59;100112.47;;;11.03;100.00
46087;BME280;31824;49.648;8.640;2023-03-22T00:12:01;100117.00;;;11.14;100.00
46087;BME280;31824;49.648;8.640;2023-03-22T00:15:04;100111.75;;;11.14;100.00
46087;BME280;31824;49.648;8.640;2023-03-22T00:18:08;100107.78;;;11.19;100.00
46087;BME280;31824;49.648;8.640;2023-03-22T00:21:15;100114.38;;;11.14;100.00
46087;BME280;31824;49.648;8.640;2023-03-22T00:24:17;100106.88;;;11.08;100.00
46087;BME280;31824;49.648;8.640;2023-03-22T00:27:21;100107.88;;;11.00;100.00
46087;BME280;31824;49.648;8.640;2023-03-22T00:30:23;100103.00;;;10.94;100.00
46087;BME280;31824;49.648;8.640;2023-03-22T00:33:26;100102.34;;;10.87;100.00
46087;BME280;31824;49.648;8.640;2023-03-22T00:36:30;100102.22;;;10.95;100.00
46087;BME280;31824;49.648;8.640;2023-03-22T00:39:31;100084.06;;;10.88;100.00
46087;BME280;31824;49.648;8.640;2023-03-22T00:42:33;100093.94;;;11.01;100.00
46087;BME280;31824;49.648;8.640;2023-03-22T00:45:35;100090.41;;;11.01;100.00
46087;BME280;31824;49.648;8.640;2023-03-22T00:48:39;100089.34;;;10.98;100.00
46087;BME280;31824;49.648;8.640;2023-03-22T00:51:42;100089.97;;;10.96;100.00
46087;BME280;31824;49.648;8.640;2023-03-22T00:54:44;100085.69;;;11.07;100.00
46087;BME280;31824;49.648;8.640;2023-03-22T00:57:46;100075.47;;;11.10;100.00
46087;BME280;31824;49.648;8.640;2023-03-22T01:00:48;100075.97;;;11.06;100.00
46087;BME280;31824;49.648;8.640;2023-03-22T01:03:50;100070.56;;;11.04;100.00
46087;BME280;31824;49.648;8.640;2023-03-22T01:06:54;100059.78;;;11.01;100.00
46087;BME280;31824;49.648;8.640;2023-03-22T01:10:04;100064.72;;;10.88;100.00
46087;BME280;31824;49.648;8.640;2023-03-22T01:13:10;100063.88;;;10.97;100.00
46087;BME280;31824;49.648;8.640;2023-03-22T01:16:12;100059.13;;;10.93;100.00
46087;BME280;31824;49.648;8.640;2023-03-22T01:19:14;100061.38;;;10.99;100.00
46087;BME280;31824;49.648;8.640;2023-03-22T01:22:17;100058.59;;;10.97;100.00
46087;BME280;31824;49.648;8.640;2023-03-22T01:25:19;100051.78;;;10.70;100.00
46087;BME280;31824;49.648;8.640;2023-03-22T01:28:25;100046.97;;;10.75;100.00
46087;BME280;31824;49.648;8.640;2023-03-22T01:31:28;100032.09;;;10.75;100.00
46087;BME280;31824;49.648;8.640;2023-03-22T01:34:32;100039.59;;;10.71;100.00
46087;BME280;31824;49.648;8.640;2023-03-22T01:37:36;100036.91;;;10.90;100.00
46087;BME280;31824;49.648;8.640;2023-03-22T01:40:38;100039.66;;;10.91;100.00
46087;BME280;31824;49.648;8.640;2023-03-22T01:43:41;100040.94;;;10.86;100.00
46087;BME280;31824;49.648;8.640;2023-03-22T01:46:45;100031.88;;;10.83;100.00
46087;BME280;31824;49.648;8.640;2023-03-22T01:49:48;100031.09;;;10.84;100.00
46087;BME280;31824;49.648;8.640;2023-03-22T01:52:52;100024.91;;;10.83;100.00
46087;BME280;31824;49.648;8.640;2023-03-22T01:56:06;100034.66;;;10.84;100.00
46087;BME280;31824;49.648;8.640;2023-03-22T01:59:10;100036.59;;;10.76;100.00
46087;BME280;31824;49.648;8.640;2023-03-22T02:02:33;100041.31;;;10.80;100.00
46087;BME280;31824;49.648;8.640;2023-03-22T02:05:46;100041.72;;;10.85;100.00
46087;BME280;31824;49.648;8.640;2023-03-22T02:08:50;100046.97;;;10.85;100.00
46087;BME280;31824;49.648;8.640;2023-03-22T02:11:59;100035.81;;;10.77;100.00
46087;BME280;31824;49.648;8.640;2023-03-22T02:15:11;100040.28;;;10.78;100.00
46087;BME280;31824;49.648;8.640;2023-03-22T02:18:50;100036.06;;;10.80;100.00
46087;BME280;31824;49.648;8.640;2023-03-22T02:22:08;100033.41;;;10.70;100.00
46087;BME280;31824;49.648;8.640;2023-03-22T02:25:43;100033.97;;;10.76;100.00
46087;BME280;31824;49.648;8.640;2023-03-22T02:28:57;100032.41;;;10.78;100.00
46087;BME280;31824;49.648;8.640;2023-03-22T02:36:14;100038.00;;;10.73;100.00
46087;BME280;31824;49.648;8.640;2023-03-22T02:39:31;100028.44;;;10.73;100.00
46087;BME280;31824;49.648;8.640;2023-03-22T02:42:43;100035.25;;;10.71;100.00
46087;BME280;31824;49.648;8.640;2023-03-22T02:45:47;100030.38;;;10.66;100.00
46087;BME280;31824;49.648;8.640;2023-03-22T02:48:59;100023.25;;;10.64;100.00
46087;BME280;31824;49.648;8.640;2023-03-22T02:52:09;100018.66;;;10.62;100.00
46087;BME280;31824;49.648;8.640;2023-03-22T02:55:17;100010.56;;;10.69;100.00
46087;BME280;31824;49.648;8.640;2023-03-22T02:58:24;100010.00;;;10.63;100.00
46087;BME280;31824;49.648;8.640;2023-03-22T03:01:29;100017.28;;;10.76;100.00
46087;BME280;31824;49.648;8.640;2023-03-22T03:04:34;100014.53;;;10.74;100.00
46087;BME280;31824;49.648;8.640;2023-03-22T03:07:40;100003.63;;;10.80;100.00
46087;BME280;31824;49.648;8.640;2023-03-22T03:10:46;99999.41;;;10.72;100.00
46087;BME280;31824;49.648;8.640;2023-03-22T03:13:49;99992.31;;;10.71;100.00
46087;BME280;31824;49.648;8.640;2023-03-22T03:17:10;100007.69;;;10.76;100.00
46087;BME280;31824;49.648;8.640;2023-03-22T03:20:21;100012.81;;;10.75;100.00
46087;BME280;31824;49.648;8.640;2023-03-22T03:23:37;100013.72;;;10.75;100.00
46087;BME280;31824;49.648;8.640;2023-03-22T03:26:50;100006.47;;;10.73;100.00
46087;BME280;31824;49.648;8.640;2023-03-22T03:29:59;100002.69;;;10.69;100.00
46087;BME280;31824;49.648;8.640;2023-03-22T03:33:05;100006.88;;;10.67;100.00
46087;BME280;31824;49.648;8.640;2023-03-22T03:36:11;100004.22;;;10.67;100.00
46087;BME280;31824;49.648;8.640;2023-03-22T03:39:16;99999.63;;;10.64;100.00
46087;BME280;31824;49.648;8.640;2023-03-22T03:42:20;99995.44;;;10.67;100.00
46087;BME280;31824;49.648;8.640;2023-03-22T03:45:24;99989.13;;;10.64;100.00
46087;BME280;31824;49.648;8.640;2023-03-22T03:48:29;99989.25;;;10.66;100.00
46087;BME280;31824;49.648;8.640;2023-03-22T03:51:32;99997.66;;;10.62;100.00
46087;BME280;31824;49.648;8.640;2023-03-22T03:54:45;99996.59;;;10.60;100.00
46087;BME280;31824;49.648;8.640;2023-03-22T03:57:53;99988.47;;;10.57;100.00
46087;BME280;31824;49.648;8.640;2023-03-22T04:00:55;99992.00;;;10.57;100.00
46087;BME280;31824;49.648;8.640;2023-03-22T04:04:13;99986.22;;;10.61;100.00
46087;BME280;31824;49.648;8.640;2023-03-22T04:07:22;99981.75;;;10.60;100.00
46087;BME280;31824;49.648;8.640;2023-03-22T04:10:24;99979.25;;;10.52;100.00
46087;BME280;31824;49.648;8.640;2023-03-22T04:13:27;99973.03;;;10.51;100.00
46087;BME280;31824;49.648;8.640;2023-03-22T04:16:33;99974.25;;;10.55;100.00
46087;BME280;31824;49.648;8.640;2023-03-22T04:19:36;99975.53;;;10.50;100.00
46087;BME280;31824;49.648;8.640;2023-03-22T04:22:39;99965.47;;;10.54;100.00
46087;BME280;31824;49.648;8.640;2023-03-22T04:25:42;99970.06;;;10.57;100.00
46087;BME280;31824;49.648;8.640;2023-03-22T04:28:47;99964.69;;;10.55;100.00
46087;BME280;31824;49.648;8.640;2023-03-22T04:31:49;99954.91;;;10.44;100.00
46087;BME280;31824;49.648;8.640;2023-03-22T04:35:00;99963.22;;;10.49;100.00
46087;BME280;31824;49.648;8.640;2023-03-22T04:38:03;99961.19;;;10.36;100.00
46087;BME280;31824;49.648;8.640;2023-03-22T04:41:06;99953.44;;;10.37;100.00
46087;BME280;31824;49.648;8.640;2023-03-22T04:44:14;99951.28;;;10.33;100.00
46087;BME280;31824;49.648;8.640;2023-03-22T04:47:22;99952.59;;;10.28;100.00
46087;BME280;31824;49.648;8.640;2023-03-22T04:50:24;99942.09;;;10.28;100.00
46087;BME280;31824;49.648;8.640;2023-03-22T04:53:34;99943.66;;;10.26;100.00
46087;BME280;31824;49.648;8.640;2023-03-22T04:56:40;99948.91;;;10.26;100.00
46087;BME280;31824;49.648;8.640;2023-03-22T04:59:43;99951.63;;;10.17;100.00
46087;BME280;31824;49.648;8.640;2023-03-22T05:02:45;99956.97;;;10.08;100.00
46087;BME280;31824;49.648;8.640;2023-03-22T05:05:56;99952.47;;;9.97;100.00
46087;BME280;31824;49.648;8.640;2023-03-22T05:09:08;99954.66;;;9.92;100.00
46087;BME280;31824;49.648;8.640;2023-03-22T05:12:11;99945.94;;;9.83;100.00
46087;BME280;31824;49.648;8.640;2023-03-22T05:15:21;99949.16;;;9.70;100.00
46087;BME280;31824;49.648;8.640;2023-03-22T05:18:25;99962.63;;;9.65;100.00
46087;BME280;31824;49.648;8.640;2023-03-22T05:21:29;99969.94;;;9.58;100.00
46087;BME280;31824;49.648;8.640;2023-03-22T05:24:38;99960.56;;;9.52;100.00
46087;BME280;31824;49.648;8.640;2023-03-22T05:27:44;99967.88;;;9.45;100.00
46087;BME280;31824;49.648;8.640;2023-03-22T05:31:08;99966.13;;;9.55;100.00
46087;BME280;31824;49.648;8.640;2023-03-22T05:34:26;99968.03;;;9.66;100.00
46087;BME280;31824;49.648;8.640;2023-03-22T05:37:44;99964.53;;;9.57;100.00
46087;BME280;31824;49.648;8.640;2023-03-22T05:40:48;99971.19;;;9.53;100.00
46087;BME280;31824;49.648;8.640;2023-03-22T05:43:50;99971.19;;;9.53;100.00
46087;BME280;31824;49.648;8.640;2023-03-22T05:46:54;99964.81;;;9.60;100.00
46087;BME280;31824;49.648;8.640;2023-03-22T05:50:04;99968.44;;;9.52;100.00
46087;BME280;31824;49.648;8.640;2023-03-22T05:53:07;99974.97;;;9.46;100.00
46087;BME280;31824;49.648;8.640;2023-03-22T05:56:24;99982.19;;;9.49;100.00
46087;BME280;31824;49.648;8.640;2023-03-22T05:59:37;99988.78;;;9.54;100.00
46087;BME280;31824;49.648;8.640;2023-03-22T06:02:44;99985.75;;;9.50;100.00
46087;BME280;31824;49.648;8.640;2023-03-22T06:05:46;99992.25;;;9.44;100.00
46087;BME280;31824;49.648;8.640;2023-03-22T06:08:53;99984.75;;;9.39;100.00
46087;BME280;31824;49.648;8.640;2023-03-22T06:12:02;99996.06;;;9.29;100.00
46087;BME280;31824;49.648;8.640;2023-03-22T06:15:05;99995.94;;;9.27;100.00
46087;BME280;31824;49.648;8.640;2023-03-22T06:18:21;99990.88;;;9.20;100.00
46087;BME280;31824;49.648;8.640;2023-03-22T06:21:32;99993.50;;;9.20;100.00
46087;BME280;31824;49.648;8.640;2023-03-22T06:24:37;99990.09;;;9.21;100.00
46087;BME280;31824;49.648;8.640;2023-03-22T06:27:42;99989.47;;;9.24;100.00
46087;BME280;31824;49.648;8.640;2023-03-22T06:30:44;99992.84;;;9.23;100.00
46087;BME280;31824;49.648;8.640;2023-03-22T06:34:00;99998.97;;;9.32;100.00
46087;BME280;31824;49.648;8.640;2023-03-22T06:37:09;99990.63;;;9.36;100.00
46087;BME280;31824;49.648;8.640;2023-03-22T06:40:14;99998.19;;;9.33;100.00
46087;BME280;31824;49.648;8.640;2023-03-22T06:43:16;99998.75;;;9.39;100.00
46087;BME280;31824;49.648;8.640;2023-03-22T06:46:21;100008.47;;;9.40;100.00
46087;BME280;31824;49.648;8.640;2023-03-22T06:49:34;100011.34;;;9.52;100.00
46087;BME280;31824;49.648;8.640;2023-03-22T06:52:36;100012.25;;;9.53;100.00
46087;BME280;31824;49.648;8.640;2023-03-22T06:55:40;100006.97;;;9.61;100.00
46087;BME280;31824;49.648;8.640;2023-03-22T06:58:50;100010.97;;;9.96;100.00
46087;BME280;31824;49.648;8.640;2023-03-22T07:01:52;100006.06;;;10.09;100.00
46087;BME280;31824;49.648;8.640;2023-03-22T07:04:56;100013.34;;;10.22;100.00
46087;BME280;31824;49.648;8.640;2023-03-22T07:07:59;100013.28;;;10.31;100.00
46087;BME280;31824;49.648;8.640;2023-03-22T07:11:02;100002.81;;;10.41;100.00
46087;BME280;31824;49.648;8.640;2023-03-22T07:14:05;100011.41;;;10.49;100.00
46087;BME280;31824;49.648;8.640;2023-03-22T07:17:27;100015.31;;;10.44;100.00
46087;BME280;31824;49.648;8.640;2023-03-22T07:20:30;100011.41;;;10.30;100.00
46087;BME280;31824;49.648;8.640;2023-03-22T07:23:34;100011.22;;;10.37;100.00
46087;BME280;31824;49.648;8.640;2023-03-22T07:26:42;100015.81;;;10.40;100.00
46087;BME280;31824;49.648;8.640;2023-03-22T07:29:49;100020.06;;;10.29;100.00
46087;BME280;31824;49.648;8.640;2023-03-22T07:32:51;100023.75;;;10.50;100.00
46087;BME280;31824;49.648;8.640;2023-03-22T07:35:55;100019.47;;;10.71;100.00
46087;BME280;31824;49.648;8.640;2023-03-22T07:38:57;100022.03;;;10.90;100.00
46087;BME280;31824;49.648;8.640;2023-03-22T07:42:08;100032.06;;;11.15;100.00
46087;BME280;31824;49.648;8.640;2023-03-22T07:45:17;100025.38;;;11.08;100.00
46087;BME280;31824;49.648;8.640;2023-03-22T07:48:20;100029.03;;;11.10;100.00
46087;BME280;31824;49.648;8.640;2023-03-22T07:51:41;100024.34;;;11.27;100.00
46087;BME280;31824;49.648;8.640;2023-03-22T07:54:42;100023.94;;;11.32;100.00
46087;BME280;31824;49.648;8.640;2023-03-22T07:57:44;100019.09;;;11.17;100.00
46087;BME280;31824;49.648;8.640;2023-03-22T08:00:46;100011.56;;;11.11;100.00
46087;BME280;31824;49.648;8.640;2023-03-22T08:04:09;100022.13;;;11.31;100.00
46087;BME280;31824;49.648;8.640;2023-03-22T08:07:33;100005.25;;;11.50;100.00
46087;BME280;31824;49.648;8.640;2023-03-22T08:10:35;100000.53;;;11.66;100.00
46087;BME280;31824;49.648;8.640;2023-03-22T08:13:38;99995.75;;;11.83;100.00
46087;BME280;31824;49.648;8.640;2023-03-22T08:16:43;99998.59;;;12.17;100.00
46087;BME280;31824;49.648;8.640;2023-03-22T08:19:45;99994.94;;;12.15;100.00
46087;BME280;31824;49.648;8.640;2023-03-22T08:22:55;99995.78;;;12.04;100.00
46087;BME280;31824;49.648;8.640;2023-03-22T08:26:00;100001.16;;;12.05;100.00
46087;BME280;31824;49.648;8.640;2023-03-22T08:29:05;99993.28;;;11.95;100.00
46087;BME280;31824;49.648;8.640;2023-03-22T08:32:09;100000.63;;;11.99;100.00
46087;BME280;31824;49.648;8.640;2023-03-22T08:35:11;99999.66;;;12.19;100.00
46087;BME280;31824;49.648;8.640;2023-03-22T08:38:16;100000.44;;;12.28;100.00
46087;BME280;31824;49.648;8.640;2023-03-22T08:41:22;99995.63;;;12.45;100.00
46087;BME280;31824;49.648;8.640;2023-03-22T08:44:24;99983.72;;;12.82;100.00
46087;BME280;31824;49.648;8.640;2023-03-22T08:47:26;99984.06;;;12.87;100.00
46087;BME280;31824;49.648;8.640;2023-03-22T08:50:33;99981.88;;;13.38;100.00
46087;BME280;31824;49.648;8.640;2023-03-22T08:53:46;99982.47;;;13.45;100.00
46087;BME280;31824;49.648;8.640;2023-03-22T08:57:11;99984.06;;;13.43;100.00
46087;BME280;31824;49.648;8.640;2023-03-22T09:00:25;99970.41;;;13.37;100.00
46087;BME280;31824;49.648;8.640;2023-03-22T09:03:46;99979.84;;;13.45;100.00
46087;BME280;31824;49.648;8.640;2023-03-22T09:06:48;99963.63;;;13.41;100.00
46087;BME280;31824;49.648;8.640;2023-03-22T09:09:51;99962.63;;;13.16;100.00
46087;BME280;31824;49.648;8.640;2023-03-22T09:12:55;99962.31;;;13.24;100.00
46087;BME280;31824;49.648;8.640;2023-03-22T09:15:56;99963.03;;;13.33;100.00
46087;BME280;31824;49.648;8.640;2023-03-22T09:19:02;99963.25;;;13.70;100.00
46087;BME280;31824;49.648;8.640;2023-03-22T09:22:06;99951.09;;;13.84;100.00
46087;BME280;31824;49.648;8.640;2023-03-22T09:25:20;99947.31;;;14.04;100.00
46087;BME280;31824;49.648;8.640;2023-03-22T09:28:25;99948.22;;;14.05;100.00
46087;BME280;31824;49.648;8.640;2023-03-22T09:31:30;99949.72;;;14.01;100.00
46087;BME280;31824;49.648;8.640;2023-03-22T09:34:45;99945.66;;;14.30;100.00
46087;BME280;31824;49.648;8.640;2023-03-22T09:37:49;99943.63;;;14.75;100.00
46087;BME280;31824;49.648;8.640;2023-03-22T09:40:58;99939.41;;;14.53;100.00
46087;BME280;31824;49.648;8.640;2023-03-22T09:44:11;99944.22;;;14.59;100.00
46087;BME280;31824;49.648;8.640;2023-03-22T09:47:16;99942.16;;;14.78;100.00
46087;BME280;31824;49.648;8.640;2023-03-22T09:50:21;99929.09;;;14.93;100.00
46087;BME280;31824;49.648;8.640;2023-03-22T09:53:26;99943.88;;;15.03;100.00
46087;BME280;31824;49.648;8.640;2023-03-22T09:56:30;99932.19;;;15.38;100.00
46087;BME280;31824;49.648;8.640;2023-03-22T09:59:41;99930.16;;;15.09;100.00
46087;BME280;31824;49.648;8.640;2023-03-22T10:02:53;99924.16;;;15.11;100.00
46087;BME280;31824;49.648;8.640;2023-03-22T10:06:01;99920.91;;;14.90;100.00
46087;BME280;31824;49.648;8.640;2023-03-22T10:09:11;99907.78;;;14.78;100.00
46087;BME280;31824;49.648;8.640;2023-03-22T10:12:22;99919.09;;;14.89;100.00
46087;BME280;31824;49.648;8.640;2023-03-22T10:15:29;99906.13;;;14.80;100.00
46087;BME280;31824;49.648;8.640;2023-03-22T10:18:35;99895.25;;;14.76;100.00
46087;BME280;31824;49.648;8.640;2023-03-22T10:21:38;99898.91;;;14.78;100.00
46087;BME280;31824;49.648;8.640;2023-03-22T10:24:44;99904.22;;;14.66;100.00
46087;BME280;31824;49.648;8.640;2023-03-22T10:27:49;99902.94;;;14.73;100.00
46087;BME280;31824;49.648;8.640;2023-03-22T10:30:56;99906.94;;;14.79;100.00
46087;BME280;31824;49.648;8.640;2023-03-22T10:34:02;99901.50;;;14.90;100.00
46087;BME280;31824;49.648;8.640;2023-03-22T10:37:08;99916.28;;;14.99;100.00
46087;BME280;31824;49.648;8.640;2023-03-22T10:40:16;99904.28;;;14.79;100.00
46087;BME280;31824;49.648;8.640;2023-03-22T10:43:24;99901.81;;;15.19;100.00
46087;BME280;31824;49.648;8.640;2023-03-22T10:46:32;99910.66;;;15.72;100.00
46087;BME280;31824;49.648;8.640;2023-03-22T10:49:41;99905.28;;;15.84;100.00
46087;BME280;31824;49.648;8.640;2023-03-22T10:52:53;99901.88;;;15.60;100.00
46087;BME280;31824;49.648;8.640;2023-03-22T10:56:18;99898.94;;;16.22;100.00
46087;BME280;31824;49.648;8.640;2023-03-22T10:59:47;99904.94;;;16.33;100.00
46087;BME280;31824;49.648;8.640;2023-03-22T11:02:53;99898.94;;;16.22;100.00
46087;BME280;31824;49.648;8.640;2023-03-22T11:06:05;99883.97;;;16.23;100.00
46087;BME280;31824;49.648;8.640;2023-03-22T11:09:12;99891.53;;;16.58;100.00
46087;BME280;31824;49.648;8.640;2023-03-22T11:12:14;99877.41;;;16.44;100.00
46087;BME280;31824;49.648;8.640;2023-03-22T11:15:26;99879.56;;;16.65;100.00
46087;BME280;31824;49.648;8.640;2023-03-22T11:18:33;99871.94;;;16.84;100.00
46087;BME280;31824;49.648;8.640;2023-03-22T11:21:36;99875.41;;;17.12;100.00
46087;BME280;31824;49.648;8.640;2023-03-22T11:24:38;99861.94;;;17.09;100.00
46087;BME280;31824;49.648;8.640;2023-03-22T11:27:49;99873.88;;;16.59;100.00
46087;BME280;31824;49.648;8.640;2023-03-22T11:31:03;99872.53;;;16.24;100.00
46087;BME280;31824;49.648;8.640;2023-03-22T11:34:14;99858.78;;;16.58;100.00
46087;BME280;31824;49.648;8.640;2023-03-22T11:37:16;99854.78;;;16.93;100.00
46087;BME280;31824;49.648;8.640;2023-03-22T11:40:21;99844.16;;;16.93;100.00
46087;BME280;31824;49.648;8.640;2023-03-22T11:43:26;99852.47;;;16.56;100.00
46087;BME280;31824;49.648;8.640;2023-03-22T11:46:35;99849.03;;;16.43;100.00
46087;BME280;31824;49.648;8.640;2023-03-22T11:49:42;99846.41;;;16.71;100.00
46087;BME280;31824;49.648;8.640;2023-03-22T11:52:47;99834.31;;;17.50;100.00
46087;BME280;31824;49.648;8.640;2023-03-22T11:55:53;99842.72;;;17.58;100.00
46087;BME280;31824;49.648;8.640;2023-03-22T11:59:02;99847.03;;;17.26;100.00
46087;BME280;31824;49.648;8.640;2023-03-22T12:02:15;99839.34;;;17.15;100.00
46087;BME280;31824;49.648;8.640;2023-03-22T12:05:22;99834.31;;;17.20;100.00
46087;BME280;31824;49.648;8.640;2023-03-22T12:08:38;99819.94;;;18.08;100.00
46087;BME280;31824;49.648;8.640;2023-03-22T12:11:45;99823.06;;;18.65;100.00
46087;BME280;31824;49.648;8.640;2023-03-22T12:14:51;99812.50;;;18.66;100.00
46087;BME280;31824;49.648;8.640;2023-03-22T12:17:59;99820.38;;;19.32;100.00
46087;BME280;31824;49.648;8.640;2023-03-22T12:21:08;99807.34;;;18.69;100.00
46087;BME280;31824;49.648;8.640;2023-03-22T12:24:23;99807.78;;;18.13;100.00
46087;BME280;31824;49.648;8.640;2023-03-22T12:27:30;99805.38;;;18.01;100.00
46087;BME280;31824;49.648;8.640;2023-03-22T12:30:38;99805.84;;;18.58;100.00
46087;BME280;31824;49.648;8.640;2023-03-22T12:33:47;99788.66;;;18.35;100.00
46087;BME280;31824;49.648;8.640;2023-03-22T12:36:52;99791.53;;;18.39;100.00
46087;BME280;31824;49.648;8.640;2023-03-22T12:39:59;99783.16;;;18.32;100.00
46087;BME280;31824;49.648;8.640;2023-03-22T12:43:12;99783.91;;;18.46;100.00
46087;BME280;31824;49.648;8.640;2023-03-22T12:46:19;99773.44;;;18.32;100.00
46087;BME280;31824;49.648;8.640;2023-03-22T12:49:26;99778.41;;;18.26;100.00
46087;BME280;31824;49.648;8.640;2023-03-22T12:52:36;99765.09;;;18.92;100.00
46087;BME280;31824;49.648;8.640;2023-03-22T12:55:47;99766.06;;;18.78;100.00
46087;BME280;31824;49.648;8.640;2023-03-22T12:58:51;99771.00;;;18.37;100.00
46087;BME280;31824;49.648;8.640;2023-03-22T13:01:57;99757.88;;;18.56;100.00
46087;BME280;31824;49.648;8.640;2023-03-22T13:05:04;99759.88;;;18.61;100.00
46087;BME280;31824;49.648;8.640;2023-03-22T13:08:07;99750.31;;;19.15;100.00
46087;BME280;31824;49.648;8.640;2023-03-22T13:11:21;99751.81;;;18.59;100.00
46087;BME280;31824;49.648;8.640;2023-03-22T13:14:53;99738.97;;;18.85;100.00
46087;BME280;31824;49.648;8.640;2023-03-22T13:17:58;99736.09;;;19.15;100.00
46087;BME280;31824;49.648;8.640;2023-03-22T13:21:15;99734.75;;;18.72;100.00
46087;BME280;31824;49.648;8.640;2023-03-22T13:24:21;99728.50;;;18.88;100.00
46087;BME280;31824;49.648;8.640;2023-03-22T13:27:32;99736.56;;;18.89;100.00
46087;BME280;31824;49.648;8.640;2023-03-22T13:30:47;99737.81;;;19.14;100.00
46087;BME280;31824;49.648;8.640;2023-03-22T13:33:51;99728.16;;;19.16;100.00
46087;BME280;31824;49.648;8.640;2023-03-22T13:36:55;99733.88;;;19.60;100.00
46087;BME280;31824;49.648;8.640;2023-03-22T13:39:59;99731.13;;;20.14;100.00
46087;BME280;31824;49.648;8.640;2023-03-22T13:43:12;99719.94;;;19.66;100.00
46087;BME280;31824;49.648;8.640;2023-03-22T13:46:42;99718.13;;;20.22;100.00
46087;BME280;31824;49.648;8.640;2023-03-22T13:49:49;99721.81;;;20.24;100.00
46087;BME280;31824;49.648;8.640;2023-03-22T13:53:05;99731.75;;;19.35;100.00
46087;BME280;31824;49.648;8.640;2023-03-22T13:56:12;99716.47;;;19.49;100.00
46087;BME280;31824;49.648;8.640;2023-03-22T13:59:30;99715.94;;;19.38;100.00
46087;BME280;31824;49.648;8.640;2023-03-22T14:02:36;99714.91;;;20.10;100.00
46087;BME280;31824;49.648;8.640;2023-03-22T14:05:43;99712.09;;;20.26;100.00
46087;BME280;31824;49.648;8.640;2023-03-22T14:08:52;99703.88;;;20.61;100.00
46087;BME280;31824;49.648;8.640;2023-03-22T14:12:05;99705.16;;;20.69;100.00
46087;BME280;31824;49.648;8.640;2023-03-22T14:15:15;99699.81;;;20.69;100.00
46087;BME280;31824;49.648;8.640;2023-03-22T14:18:20;99701.63;;;19.92;100.00
46087;BME280;31824;49.648;8.640;2023-03-22T14:21:28;99692.63;;;19.89;100.00
46087;BME280;31824;49.648;8.640;2023-03-22T14:24:34;99690.94;;;20.50;100.00
46087;BME280;31824;49.648;8.640;2023-03-22T14:27:35;99700.97;;;20.56;100.00
46087;BME280;31824;49.648;8.640;2023-03-22T14:30:42;99699.59;;;19.68;100.00
46087;BME280;31824;49.648;8.640;2023-03-22T14:33:43;99692.88;;;19.94;100.00
46087;BME280;31824;49.648;8.640;2023-03-22T14:36:46;99699.47;;;19.47;100.00
46087;BME280;31824;49.648;8.640;2023-03-22T14:39:50;99688.31;;;19.18;100.00
46087;BME280;31824;49.648;8.640;2023-03-22T14:42:51;99698.84;;;19.88;100.00
46087;BME280;31824;49.648;8.640;2023-03-22T14:46:00;99706.22;;;21.15;100.00
46087;BME280;31824;49.648;8.640;2023-03-22T14:49:05;99703.53;;;20.94;100.00
46087;BME280;31824;49.648;8.640;2023-03-22T14:52:16;99707.00;;;20.31;100.00
46087;BME280;31824;49.648;8.640;2023-03-22T14:55:21;99697.94;;;20.27;100.00
46087;BME280;31824;49.648;8.640;2023-03-22T14:58:31;99692.22;;;20.78;100.00
46087;BME280;31824;49.648;8.640;2023-03-22T15:01:36;99678.69;;;20.34;100.00
46087;BME280;31824;49.648;8.640;2023-03-22T15:04:38;99676.59;;;20.68;100.00
46087;BME280;31824;49.648;8.640;2023-03-22T15:07:44;99675.13;;;20.14;100.00
46087;BME280;31824;49.648;8.640;2023-03-22T15:10:50;99672.81;;;20.02;100.00
46087;BME280;31824;49.648;8.640;2023-03-22T15:13:52;99668.91;;;19.76;100.00
46087;BME280;31824;49.648;8.640;2023-03-22T15:16:56;99657.09;;;19.89;100.00
46087;BME280;31824;49.648;8.640;2023-03-22T15:19:57;99653.34;;;20.24;100.00
46087;BME280;31824;49.648;8.640;2023-03-22T15:23:07;99651.63;;;20.66;100.00
46087;BME280;31824;49.648;8.640;2023-03-22T15:26:14;99638.34;;;20.07;100.00
46087;BME280;31824;49.648;8.640;2023-03-22T15:29:19;99645.13;;;19.43;100.00
46087;BME280;31824;49.648;8.640;2023-03-22T15:32:22;99638.41;;;19.14;100.00
46087;BME280;31824;49.648;8.640;2023-03-22T15:35:25;99639.72;;;19.04;100.00
46087;BME280;31824;49.648;8.640;2023-03-22T15:38:29;99641.00;;;18.78;100.00
46087;BME280;31824;49.648;8.640;2023-03-22T15:41:37;99647.66;;;18.51;100.00
46087;BME280;31824;49.648;8.640;2023-03-22T15:44:40;99649.00;;;18.78;100.00
46087;BME280;31824;49.648;8.640;2023-03-22T15:47:44;99654.06;;;18.55;100.00
46087;BME280;31824;49.648;8.640;2023-03-22T15:50:49;99664.25;;;18.29;100.00
46087;BME280;31824;49.648;8.640;2023-03-22T15:53:50;99658.69;;;18.25;100.00
46087;BME280;31824;49.648;8.640;2023-03-22T15:56:53;99647.97;;;18.23;100.00
46087;BME280;31824;49.648;8.640;2023-03-22T16:00:02;99660.34;;;18.22;100.00
46087;BME280;31824;49.648;8.640;2023-03-22T16:03:13;99663.75;;;17.87;100.00
46087;BME280;31824;49.648;8.640;2023-03-22T16:06:13;99667.38;;;17.89;100.00
46087;BME280;31824;49.648;8.640;2023-03-22T16:09:15;99661.25;;;17.74;100.00
46087;BME280;31824;49.648;8.640;2023-03-22T16:12:19;99667.38;;;17.72;100.00
46087;BME280;31824;49.648;8.640;2023-03-22T16:15:22;99669.78;;;17.68;100.00
46087;BME280;31824;49.648;8.640;2023-03-22T16:18:23;99677.28;;;17.44;100.00
46087;BME280;31824;49.648;8.640;2023-03-22T16:21:26;99682.31;;;17.39;100.00